Time;durP1;ratioP1;P1;durP2;ratioP2;P2;SDS_P1;SDS_P2;PMS_P1;PMS_P2;Temp;Humidity;BMP_temperature;BMP_pressure;BME280_temperature;BME280_humidity;BME280_pressure;Samples;Min_cycle;Max_cycle;Signal;HPM_P1;HPM_P2
2021/08/02 00:00:21;;;;;;;58.53;3.60;;;14.70;4.50;;;;;;5113435;28;20569;-76
2021/08/02 00:02:57;;;;;;;58.13;2.60;;;14.70;6.90;;;;;;5113840;28;20546;-73
2021/08/02 00:05:24;;;;;;;58.17;2.90;;;14.80;9.40;;;;;;5113643;28;20447;-73
2021/08/02 00:07:57;;;;;;;58.37;2.70;;;14.80;12.90;;;;;;5113747;28;20485;-74
2021/08/02 00:10:30;;;;;;;58.20;2.63;;;14.80;15.90;;;;;;5111488;28;20470;-73
2021/08/02 00:13:02;;;;;;;58.03;2.77;;;14.80;17.10;;;;;;5113718;28;20447;-73
2021/08/02 00:15:29;;;;;;;58.10;2.60;;;14.90;17.00;;;;;;5113519;28;20894;-73
2021/08/02 00:17:57;;;;;;;58.17;2.57;;;14.90;17.20;;;;;;5113341;28;21037;-73
2021/08/02 00:20:28;;;;;;;58.03;2.70;;;14.90;19.40;;;;;;5112926;28;20491;-73
2021/08/02 00:22:56;;;;;;;57.77;2.80;;;14.90;19.50;;;;;;5113055;28;20545;-75
2021/08/02 00:25:25;;;;;;;58.17;2.60;;;14.90;20.20;;;;;;5113202;28;20489;-75
2021/08/02 00:27:54;;;;;;;58.13;2.50;;;14.90;19.90;;;;;;5113048;28;20975;-73
2021/08/02 00:30:23;;;;;;;58.17;2.60;;;14.90;19.30;;;;;;5112618;28;20461;-74
2021/08/02 00:32:51;;;;;;;58.27;2.57;;;14.90;19.00;;;;;;5112991;28;20446;-73
2021/08/02 00:35:18;;;;;;;58.23;2.70;;;15.00;18.90;;;;;;5112795;28;20892;-74
2021/08/02 00:37:51;;;;;;;58.17;2.50;;;14.90;17.70;;;;;;5113127;28;20542;-73
2021/08/02 00:41:10;;;;;;;58.07;3.40;;;15.00;15.80;;;;;;5112603;28;20592;-73
2021/08/02 00:44:17;;;;;;;58.60;2.67;;;14.90;15.80;;;;;;5110452;28;20475;-74
2021/08/02 00:46:51;;;;;;;58.07;2.70;;;14.90;15.00;;;;;;5112698;28;20453;-76
2021/08/02 00:49:23;;;;;;;58.27;2.60;;;14.90;14.10;;;;;;5112308;28;20450;-73
2021/08/02 00:51:54;;;;;;;58.30;2.60;;;14.90;13.80;;;;;;5112472;28;20470;-73
2021/08/02 00:54:22;;;;;;;57.67;2.80;;;14.90;13.90;;;;;;5112800;28;20876;-74
2021/08/02 00:56:55;;;;;;;58.27;2.70;;;14.80;14.30;;;;;;5112886;28;20478;-74
2021/08/02 00:59:24;;;;;;;58.27;2.50;;;14.80;15.10;;;;;;5112375;28;20475;-73
2021/08/02 01:01:51;;;;;;;58.13;2.60;;;14.80;15.20;;;;;;5112604;28;20501;-73
2021/08/02 01:04:20;;;;;;;58.20;2.60;;;14.80;15.00;;;;;;5112364;28;20527;-74
2021/08/02 01:06:48;;;;;;;58.40;2.53;;;14.70;14.00;;;;;;5111956;28;20490;-74
2021/08/02 01:09:18;;;;;;;58.10;2.50;;;14.80;15.40;;;;;;5112380;28;20892;-73
2021/08/02 01:11:45;;;;;;;58.03;2.57;;;14.70;17.50;;;;;;5112194;28;20970;-73
2021/08/02 01:14:15;;;;;;;58.20;2.50;;;14.70;18.50;;;;;;5112151;28;20544;-73
2021/08/02 01:16:42;;;;;;;58.37;2.90;;;14.70;18.20;;;;;;5111223;28;20438;-73
2021/08/02 01:19:12;;;;;;;58.57;2.97;;;14.70;17.10;;;;;;5111939;28;20535;-73
2021/08/02 01:21:41;;;;;;;58.13;2.70;;;14.70;18.00;;;;;;5112188;28;21047;-73
2021/08/02 01:24:12;;;;;;;58.00;2.63;;;14.70;18.30;;;;;;5112297;28;20949;-74
2021/08/02 01:27:12;;;;;;;58.67;3.20;;;14.70;18.50;;;;;;5112186;28;20866;-74
2021/08/02 01:30:16;;;;;;;58.27;2.80;;;14.70;18.60;;;;;;5087073;28;20967;-74
2021/08/02 01:32:43;;;;;;;57.87;2.67;;;14.70;19.90;;;;;;5111924;28;20449;-73
2021/08/02 01:35:12;;;;;;;58.37;2.80;;;14.70;19.80;;;;;;5112209;28;20482;-74
2021/08/02 01:37:40;;;;;;;59.30;3.50;;;14.70;19.90;;;;;;5112611;28;20455;-74
2021/08/02 01:40:09;;;;;;;57.87;2.70;;;14.70;18.30;;;;;;5111597;28;20564;-73
2021/08/02 01:42:36;;;;;;;58.70;3.07;;;14.70;18.30;;;;;;5112059;28;20532;-74
2021/08/02 01:45:04;;;;;;;58.30;2.53;;;14.70;18.80;;;;;;5112128;28;20473;-73
2021/08/02 01:47:38;;;;;;;58.17;2.53;;;14.70;19.40;;;;;;5108581;28;20454;-73
2021/08/02 01:50:18;;;;;;;58.40;2.50;;;14.70;20.50;;;;;;5111966;28;20498;-73
2021/08/02 01:52:54;;;;;;;58.40;2.70;;;14.70;21.40;;;;;;5111903;28;20452;-73
2021/08/02 01:55:24;;;;;;;57.87;2.50;;;14.70;21.20;;;;;;5111830;28;20447;-74
2021/08/02 01:57:55;;;;;;;58.10;2.80;;;14.70;20.80;;;;;;5112226;28;20530;-73
2021/08/02 02:00:22;;;;;;;58.10;2.50;;;14.70;19.70;;;;;;5111526;28;20494;-74
2021/08/02 02:02:58;;;;;;;58.30;2.70;;;14.70;18.90;;;;;;5112022;28;20539;-73
2021/08/02 02:05:31;;;;;;;57.97;2.63;;;14.70;17.80;;;;;;5111922;28;20538;-74
2021/08/02 02:08:05;;;;;;;58.07;2.47;;;14.70;18.00;;;;;;5111990;28;20537;-73
2021/08/02 02:10:39;;;;;;;57.77;2.60;;;14.70;19.60;;;;;;5111422;28;20468;-74
2021/08/02 02:13:09;;;;;;;58.27;2.70;;;14.70;21.60;;;;;;5111905;28;21096;-73
2021/08/02 02:15:36;;;;;;;58.27;2.57;;;14.70;23.20;;;;;;5111857;28;20446;-74
2021/08/02 02:18:05;;;;;;;58.17;2.50;;;14.70;23.80;;;;;;5112945;28;20939;-73
2021/08/02 02:20:35;;;;;;;58.07;2.50;;;14.70;23.30;;;;;;5113749;28;20481;-73
2021/08/02 02:23:03;;;;;;;57.70;2.50;;;14.70;23.50;;;;;;5115609;28;20453;-73
2021/08/02 02:25:31;;;;;;;57.87;2.40;;;14.70;23.30;;;;;;5115534;28;20538;-73
2021/08/02 02:28:00;;;;;;;58.17;2.70;;;14.70;23.30;;;;;;5115588;28;21028;-74
2021/08/02 02:30:27;;;;;;;58.20;2.53;;;14.70;23.40;;;;;;5115327;28;20458;-75
2021/08/02 02:32:54;;;;;;;57.93;2.50;;;14.70;24.40;;;;;;5115335;28;21029;-74
2021/08/02 02:35:24;;;;;;;58.23;2.47;;;14.60;23.80;;;;;;5114727;28;20549;-73
2021/08/02 02:37:52;;;;;;;58.40;3.03;;;14.60;24.00;;;;;;5114094;28;20454;-74
2021/08/02 02:40:20;;;;;;;58.50;2.60;;;14.60;25.90;;;;;;5114560;28;21030;-75
2021/08/02 02:42:48;;;;;;;58.77;2.80;;;14.60;27.50;;;;;;5115239;28;20452;-75
2021/08/02 02:45:17;;;;;;;58.70;2.90;;;14.60;28.70;;;;;;5114737;28;20978;-76
2021/08/02 02:47:46;;;;;;;58.27;2.77;;;14.70;30.10;;;;;;5115205;28;20445;-74
2021/08/02 02:50:13;;;;;;;58.47;2.73;;;14.60;29.70;;;;;;5114440;28;20552;-75
2021/08/02 02:52:41;;;;;;;58.03;2.70;;;14.60;28.20;;;;;;5113345;28;20949;-75
2021/08/02 02:55:11;;;;;;;58.83;3.10;;;14.50;27.70;;;;;;5115252;28;20933;-75
2021/08/02 02:57:38;;;;;;;58.47;2.87;;;14.50;26.90;;;;;;5115128;28;20480;-74
2021/08/02 03:00:08;;;;;;;58.50;3.17;;;14.50;27.20;;;;;;5114563;28;20473;-74
2021/08/02 03:02:37;;;;;;;58.27;2.70;;;14.40;27.10;;;;;;5114755;28;20525;-75
2021/08/02 03:05:06;;;;;;;57.87;2.70;;;14.40;28.30;;;;;;5114555;28;20533;-76
2021/08/02 03:07:34;;;;;;;58.13;2.90;;;14.40;28.40;;;;;;5114971;28;20525;-75
2021/08/02 03:10:01;;;;;;;58.47;2.53;;;14.40;30.20;;;;;;5114372;28;21022;-75
2021/08/02 03:12:30;;;;;;;58.17;2.70;;;14.40;32.10;;;;;;5114617;28;20469;-75
2021/08/02 03:14:57;;;;;;;58.30;2.70;;;14.40;32.60;;;;;;5114620;28;20520;-75
2021/08/02 03:17:24;;;;;;;58.67;2.90;;;14.40;32.80;;;;;;5114477;28;20456;-75
2021/08/02 03:19:52;;;;;;;58.57;2.80;;;14.40;34.00;;;;;;5114456;28;20537;-75
2021/08/02 03:22:28;;;;;;;57.70;2.70;;;14.40;34.40;;;;;;5112578;28;20483;-74
2021/08/02 03:25:10;;;;;;;58.37;3.00;;;14.40;33.80;;;;;;5114066;28;20485;-74
2021/08/02 03:27:42;;;;;;;58.33;2.70;;;14.30;32.70;;;;;;5114116;28;20459;-75
2021/08/02 03:30:11;;;;;;;58.27;2.70;;;14.30;33.40;;;;;;5114162;28;20473;-75
2021/08/02 03:32:39;;;;;;;58.37;2.70;;;14.30;33.80;;;;;;5114262;28;20543;-74
2021/08/02 03:35:12;;;;;;;58.17;2.70;;;14.30;33.70;;;;;;5114397;28;20552;-75
2021/08/02 03:37:41;;;;;;;58.37;2.90;;;14.20;33.20;;;;;;5114215;28;20455;-74
2021/08/02 03:40:10;;;;;;;58.27;2.80;;;14.20;34.40;;;;;;5113698;28;20462;-74
2021/08/02 03:42:39;;;;;;;58.57;3.03;;;14.20;35.50;;;;;;5114456;28;20912;-75
2021/08/02 03:45:07;;;;;;;59.10;3.37;;;14.20;36.10;;;;;;5113858;28;20461;-74
2021/08/02 03:47:35;;;;;;;58.47;2.90;;;14.20;36.90;;;;;;5114097;28;20443;-75
2021/08/02 03:50:02;;;;;;;58.17;2.50;;;14.20;38.90;;;;;;5113697;28;20467;-75
2021/08/02 03:52:30;;;;;;;58.27;2.60;;;14.20;39.80;;;;;;5113748;28;20473;-75
2021/08/02 03:54:57;;;;;;;58.13;2.70;;;14.20;40.90;;;;;;5111957;28;20530;-75
2021/08/02 03:57:26;;;;;;;58.27;2.63;;;14.30;42.90;;;;;;5113863;28;20446;-74
2021/08/02 03:59:53;;;;;;;58.33;2.60;;;14.30;42.50;;;;;;5113541;28;21028;-74
2021/08/02 04:02:20;;;;;;;58.07;2.70;;;14.30;43.00;;;;;;5113748;28;20573;-75
2021/08/02 04:04:46;;;;;;;58.70;2.70;;;14.30;41.20;;;;;;5113778;28;20486;-75
2021/08/02 04:07:13;;;;;;;58.07;2.63;;;14.30;39.50;;;;;;5113056;28;20537;-75
2021/08/02 04:09:42;;;;;;;58.23;2.80;;;14.40;39.40;;;;;;5113137;28;20478;-74
2021/08/02 04:12:10;;;;;;;58.20;2.60;;;14.40;39.00;;;;;;5114024;28;20443;-74
2021/08/02 04:14:37;;;;;;;58.47;2.70;;;14.40;37.20;;;;;;5113368;28;20958;-74
2021/08/02 04:17:04;;;;;;;58.23;2.63;;;14.40;35.50;;;;;;5113281;28;20442;-75
2021/08/02 04:19:31;;;;;;;58.17;3.00;;;14.40;34.00;;;;;;5113167;28;20445;-75
2021/08/02 04:21:59;;;;;;;58.30;3.43;;;14.40;32.60;;;;;;5113570;28;20582;-74
2021/08/02 04:24:26;;;;;;;57.97;2.70;;;14.50;31.90;;;;;;5113432;28;20450;-75
2021/08/02 04:26:54;;;;;;;57.67;2.73;;;14.50;30.80;;;;;;5111124;28;20534;-75
2021/08/02 04:29:21;;;;;;;58.40;2.90;;;14.50;31.10;;;;;;5113032;28;20450;-75
2021/08/02 04:31:48;;;;;;;58.23;2.70;;;14.50;31.10;;;;;;5112997;28;20551;-75
2021/08/02 04:34:15;;;;;;;58.10;2.50;;;14.50;32.80;;;;;;5112822;28;20883;-75
2021/08/02 04:36:42;;;;;;;58.17;2.70;;;14.60;32.60;;;;;;5112801;28;20540;-75
2021/08/02 04:39:09;;;;;;;58.97;2.90;;;14.60;33.80;;;;;;5112838;28;20470;-75
2021/08/02 04:41:36;;;;;;;57.97;2.50;;;14.60;33.80;;;;;;5112283;28;21020;-75
2021/08/02 04:44:04;;;;;;;58.40;2.80;;;14.70;33.90;;;;;;5113095;28;20479;-75
2021/08/02 04:46:31;;;;;;;58.03;2.63;;;14.70;33.70;;;;;;5112546;28;20534;-75
2021/08/02 04:48:58;;;;;;;57.97;2.43;;;14.70;34.10;;;;;;5113105;28;20488;-75
2021/08/02 04:51:25;;;;;;;58.60;2.87;;;14.80;33.20;;;;;;5112572;28;20546;-75
2021/08/02 04:53:52;;;;;;;58.30;2.90;;;14.80;32.50;;;;;;5112743;28;20453;-75
2021/08/02 04:56:19;;;;;;;58.40;2.43;;;14.80;31.10;;;;;;5112758;28;20542;-75
2021/08/02 04:58:45;;;;;;;58.17;2.40;;;14.90;30.90;;;;;;5110777;28;20451;-75
2021/08/02 05:01:14;;;;;;;59.00;3.73;;;14.90;30.10;;;;;;5112093;28;20577;-76
2021/08/02 05:03:40;;;;;;;58.07;2.50;;;14.90;28.80;;;;;;5112543;28;20966;-74
2021/08/02 05:06:07;;;;;;;58.23;2.40;;;15.00;27.00;;;;;;5112743;28;20895;-75
2021/08/02 05:08:34;;;;;;;57.93;2.50;;;15.00;24.10;;;;;;5112096;28;20457;-75
2021/08/02 05:11:02;;;;;;;57.83;2.33;;;15.10;22.70;;;;;;5112222;28;20467;-76
2021/08/02 05:13:29;;;;;;;57.73;2.50;;;15.10;20.30;;;;;;5112447;28;20452;-74
2021/08/02 05:15:56;;;;;;;58.27;2.30;;;15.10;19.50;;;;;;5112094;28;20457;-74
2021/08/02 05:18:24;;;;;;;58.27;2.30;;;15.10;18.90;;;;;;5112192;28;20509;-74
2021/08/02 05:20:51;;;;;;;57.97;2.60;;;15.10;19.20;;;;;;5111874;28;21022;-74
2021/08/02 05:23:18;;;;;;;57.97;2.40;;;15.10;19.20;;;;;;5112202;28;20449;-76
2021/08/02 05:25:45;;;;;;;58.60;2.60;;;15.10;20.20;;;;;;5112375;28;20539;-75
2021/08/02 05:28:12;;;;;;;58.07;2.50;;;15.10;19.90;;;;;;5111575;28;20447;-75
2021/08/02 05:30:39;;;;;;;58.27;2.90;;;15.10;18.60;;;;;;5110389;28;20553;-74
2021/08/02 05:33:06;;;;;;;58.17;2.70;;;15.10;18.80;;;;;;5112348;28;20497;-75
2021/08/02 05:35:34;;;;;;;58.37;2.50;;;15.10;19.70;;;;;;5111943;28;20542;-75
2021/08/02 05:38:01;;;;;;;58.07;2.60;;;15.10;19.40;;;;;;5111451;28;20542;-75
2021/08/02 05:40:28;;;;;;;57.93;2.50;;;15.10;18.30;;;;;;5111320;28;20467;-76
2021/08/02 05:42:55;;;;;;;58.07;2.60;;;15.10;15.20;;;;;;5111695;28;20482;-75
2021/08/02 05:45:22;;;;;;;58.10;2.70;;;15.00;14.70;;;;;;5112362;28;20482;-74
2021/08/02 05:47:48;;;;;;;58.10;2.70;;;15.00;14.90;;;;;;5111194;28;20452;-75
2021/08/02 05:50:15;;;;;;;58.00;2.60;;;15.00;16.40;;;;;;5111010;28;20473;-74
2021/08/02 05:52:43;;;;;;;58.20;2.70;;;15.10;17.20;;;;;;5114386;28;20477;-75
2021/08/02 05:55:12;;;;;;;58.57;2.80;;;15.10;18.90;;;;;;5116187;28;20493;-75
2021/08/02 05:57:40;;;;;;;58.07;2.40;;;15.10;20.10;;;;;;5115998;28;20450;-74
2021/08/02 06:00:08;;;;;;;58.20;2.63;;;15.20;21.20;;;;;;5115955;28;20908;-75
2021/08/02 06:02:35;;;;;;;57.77;2.50;;;15.20;22.10;;;;;;5115199;28;20487;-75
2021/08/02 06:05:02;;;;;;;57.97;2.50;;;15.30;21.50;;;;;;5116127;28;20451;-75
2021/08/02 06:07:29;;;;;;;58.67;3.03;;;15.30;21.00;;;;;;5115878;28;20483;-75
2021/08/02 06:09:57;;;;;;;58.03;2.60;;;15.30;20.90;;;;;;5115654;28;20442;-75
2021/08/02 06:12:24;;;;;;;57.97;2.57;;;15.40;21.30;;;;;;5115904;28;20453;-75
2021/08/02 06:14:51;;;;;;;57.93;2.47;;;15.40;19.60;;;;;;5116197;28;20481;-76
2021/08/02 06:17:17;;;;;;;58.90;2.60;;;15.40;16.60;;;;;;5116017;28;20530;-75
2021/08/02 06:19:44;;;;;;;58.00;2.60;;;15.50;15.40;;;;;;5115557;28;20483;-74
2021/08/02 06:22:11;;;;;;;58.03;2.70;;;15.50;14.90;;;;;;5115600;28;20483;-75
2021/08/02 06:24:38;;;;;;;58.70;3.40;;;15.60;15.40;;;;;;5115588;28;20454;-75
2021/08/02 06:27:07;;;;;;;58.07;2.50;;;15.60;14.50;;;;;;5115849;28;20538;-75
2021/08/02 06:29:34;;;;;;;58.07;2.50;;;15.70;11.20;;;;;;5115258;28;20485;-74
2021/08/02 06:32:01;;;;;;;58.03;2.53;;;15.70;10.60;;;;;;5115578;28;20527;-74
2021/08/02 06:34:28;;;;;;;57.97;2.50;;;15.80;8.80;;;;;;5115560;28;20499;-74
2021/08/02 06:36:54;;;;;;;58.00;2.60;;;15.90;7.30;;;;;;5115446;28;20526;-74
2021/08/02 06:39:21;;;;;;;58.47;3.30;;;15.90;7.00;;;;;;5114997;28;20546;-75
2021/08/02 06:41:48;;;;;;;57.90;2.47;;;16.10;5.30;;;;;;5115143;28;20508;-74
2021/08/02 06:44:16;;;;;;;57.80;2.40;;;16.20;3.10;;;;;;5115576;28;20596;-75
2021/08/02 06:46:43;;;;;;;58.17;2.90;;;16.30;1.00;;;;;;5115540;28;20450;-75
2021/08/02 06:49:10;;;;;;;58.17;2.70;;;16.30;1.00;;;;;;5115036;28;20495;-75
2021/08/02 06:51:37;;;;;;;57.57;2.50;;;16.40;1.00;;;;;;5115027;28;20460;-75
2021/08/02 06:54:04;;;;;;;58.07;2.53;;;16.40;1.00;;;;;;5115153;28;20448;-76
2021/08/02 06:56:31;;;;;;;58.20;2.40;;;16.50;1.00;;;;;;5115369;28;20462;-74
2021/08/02 06:58:57;;;;;;;57.83;2.67;;;16.60;1.00;;;;;;5115297;28;20543;-74
2021/08/02 07:01:26;;;;;;;57.77;2.50;;;16.60;1.00;;;;;;5114757;28;20575;-75
2021/08/02 07:03:52;;;;;;;57.97;2.40;;;16.70;1.00;;;;;;5114308;28;20447;-75
2021/08/02 07:06:19;;;;;;;58.10;2.30;;;16.80;1.00;;;;;;5114876;28;20445;-74
2021/08/02 07:08:46;;;;;;;57.87;2.30;;;16.80;1.00;;;;;;5115084;28;20495;-76
2021/08/02 07:11:13;;;;;;;59.00;3.07;;;16.90;1.00;;;;;;5115012;28;21547;-75
2021/08/02 07:13:40;;;;;;;57.87;2.57;;;16.90;1.00;;;;;;5114752;28;20523;-74
2021/08/02 07:16:06;;;;;;;58.00;2.50;;;16.90;1.00;;;;;;5114899;28;20535;-74
2021/08/02 07:18:35;;;;;;;57.97;2.50;;;16.90;1.00;;;;;;5114826;28;20536;-74
2021/08/02 07:21:02;;;;;;;58.10;2.50;;;17.00;1.00;;;;;;5114509;28;20910;-75
2021/08/02 07:23:29;;;;;;;57.77;2.50;;;17.00;1.00;;;;;;5114696;28;20828;-74
2021/08/02 07:25:56;;;;;;;57.77;2.20;;;17.00;1.00;;;;;;5114558;28;20456;-74
2021/08/02 07:28:23;;;;;;;58.27;2.23;;;17.10;1.00;;;;;;5114594;28;20543;-75
2021/08/02 07:30:50;;;;;;;57.97;2.30;;;17.10;1.00;;;;;;5114232;28;20913;-74
2021/08/02 07:33:17;;;;;;;58.20;2.40;;;17.30;1.00;;;;;;5114327;28;20878;-76
2021/08/02 07:35:45;;;;;;;57.93;2.23;;;17.40;1.00;;;;;;5114409;28;20898;-75
2021/08/02 07:38:12;;;;;;;58.07;2.17;;;17.50;1.00;;;;;;5114572;28;20448;-75
2021/08/02 07:40:39;;;;;;;57.93;2.40;;;17.60;1.00;;;;;;5113968;28;20466;-75
2021/08/02 07:43:06;;;;;;;57.77;2.63;;;17.70;1.00;;;;;;5114288;28;20523;-75
2021/08/02 07:45:33;;;;;;;57.93;2.30;;;17.80;1.00;;;;;;5114371;28;20456;-76
2021/08/02 07:48:00;;;;;;;57.63;2.30;;;17.90;1.00;;;;;;5114152;28;20449;-75
2021/08/02 07:50:27;;;;;;;58.07;2.70;;;17.90;1.00;;;;;;5114058;28;20476;-76
2021/08/02 07:52:55;;;;;;;57.83;2.50;;;17.90;1.00;;;;;;5114076;28;20533;-72
2021/08/02 07:55:22;;;;;;;58.90;2.90;;;17.80;1.00;;;;;;5113085;28;20483;-74
2021/08/02 07:57:49;;;;;;;58.00;2.40;;;17.80;1.00;;;;;;5113775;28;20945;-74
2021/08/02 08:00:17;;;;;;;57.73;2.30;;;17.90;1.00;;;;;;5113637;28;20558;-74
2021/08/02 08:02:44;;;;;;;58.30;2.50;;;17.90;1.00;;;;;;5113761;28;20481;-74
2021/08/02 08:05:12;;;;;;;58.10;2.50;;;17.90;1.00;;;;;;5113847;28;20948;-74
2021/08/02 08:07:44;;;;;;;57.70;2.40;;;18.00;1.00;;;;;;5114015;28;20452;-74
2021/08/02 08:10:13;;;;;;;57.87;2.50;;;18.00;1.00;;;;;;5113612;28;20472;-74
2021/08/02 08:12:41;;;;;;;58.30;2.50;;;18.00;1.00;;;;;;5113722;28;20526;-75
2021/08/02 08:15:08;;;;;;;57.20;2.40;;;18.10;1.00;;;;;;5112895;28;20895;-74
2021/08/02 08:17:36;;;;;;;58.03;2.40;;;18.20;1.00;;;;;;5113620;28;20532;-74
2021/08/02 08:20:03;;;;;;;57.87;2.40;;;18.30;1.00;;;;;;5113655;28;20469;-74
2021/08/02 08:22:30;;;;;;;58.37;2.53;;;18.40;1.00;;;;;;5113583;28;20856;-74
2021/08/02 08:24:57;;;;;;;57.97;2.37;;;18.40;1.00;;;;;;5113653;28;20446;-74
2021/08/02 08:27:26;;;;;;;58.57;2.40;;;18.40;1.00;;;;;;5113590;28;20452;-76
2021/08/02 08:29:52;;;;;;;57.77;2.40;;;18.50;1.00;;;;;;5113224;28;20879;-73
2021/08/02 08:32:19;;;;;;;58.20;2.30;;;18.70;1.00;;;;;;5113457;28;20448;-74
2021/08/02 08:34:46;;;;;;;58.50;2.70;;;18.80;1.00;;;;;;5113377;28;20565;-72
2021/08/02 08:37:13;;;;;;;57.73;2.30;;;19.00;1.00;;;;;;5113485;28;20457;-72
2021/08/02 08:39:40;;;;;;;58.07;2.80;;;19.10;1.00;;;;;;5112825;28;20447;-73
2021/08/02 08:42:07;;;;;;;58.17;2.40;;;19.20;1.00;;;;;;5113408;28;20546;-74
2021/08/02 08:44:36;;;;;;;57.83;2.30;;;19.20;1.00;;;;;;5113341;28;20441;-73
2021/08/02 08:47:03;;;;;;;58.20;2.30;;;19.20;1.00;;;;;;5112831;28;20450;-73
2021/08/02 08:49:30;;;;;;;57.67;2.30;;;19.30;1.00;;;;;;5112867;28;20545;-71
2021/08/02 08:51:57;;;;;;;57.87;2.50;;;19.40;1.00;;;;;;5113009;28;20552;-72
2021/08/02 08:54:24;;;;;;;57.93;2.37;;;19.50;1.00;;;;;;5113031;28;20878;-71
2021/08/02 08:56:52;;;;;;;57.83;2.20;;;19.60;1.00;;;;;;5112796;28;20461;-71
2021/08/02 08:59:19;;;;;;;57.80;2.10;;;19.80;1.00;;;;;;5112761;28;20447;-71
2021/08/02 09:01:47;;;;;;;57.87;2.23;;;20.00;1.00;;;;;;5112899;28;20463;-71
2021/08/02 09:04:14;;;;;;;57.87;2.17;;;20.20;1.00;;;;;;5112761;28;20483;-71
2021/08/02 09:06:48;;;;;;;58.30;2.70;;;20.40;1.00;;;;;;5112710;28;20478;-71
2021/08/02 09:09:27;;;;;;;58.50;2.70;;;20.50;1.00;;;;;;5112255;28;20881;-70
2021/08/02 09:12:08;;;;;;;57.67;2.20;;;20.70;1.00;;;;;;5111234;28;20472;-71
2021/08/02 09:14:35;;;;;;;58.07;2.60;;;20.70;1.00;;;;;;5112163;28;20475;-71
2021/08/02 09:17:04;;;;;;;57.77;2.20;;;20.70;1.00;;;;;;5111190;28;21010;-70
2021/08/02 09:19:41;;;;;;;57.83;2.20;;;20.60;1.00;;;;;;5110048;28;20448;-71
2021/08/02 09:22:08;;;;;;;58.17;2.20;;;20.50;1.00;;;;;;5111906;28;20439;-71
2021/08/02 09:24:36;;;;;;;57.83;2.20;;;20.60;1.00;;;;;;5111696;28;20523;-71
2021/08/02 09:27:03;;;;;;;57.90;2.37;;;20.70;1.00;;;;;;5111873;28;20553;-71
2021/08/02 09:29:30;;;;;;;57.73;2.50;;;21.00;1.00;;;;;;5111414;28;20604;-71
2021/08/02 09:31:58;;;;;;;57.97;2.20;;;21.30;1.00;;;;;;5111686;28;20554;-71
2021/08/02 09:34:26;;;;;;;58.00;2.20;;;21.50;1.00;;;;;;5111574;28;20933;-71
2021/08/02 09:36:57;;;;;;;57.67;2.27;;;21.70;1.00;;;;;;5112028;28;20520;-71
2021/08/02 09:39:30;;;;;;;57.50;2.30;;;21.60;1.00;;;;;;5111447;28;20445;-71
2021/08/02 09:42:05;;;;;;;58.37;2.70;;;21.60;1.00;;;;;;5111698;28;20845;-71
2021/08/02 09:44:33;;;;;;;58.20;2.47;;;21.60;1.00;;;;;;5111808;28;20477;-71
2021/08/02 09:47:00;;;;;;;57.87;2.17;;;21.80;1.00;;;;;;5111966;28;20440;-71
2021/08/02 09:49:33;;;;;;;58.10;2.30;;;22.00;1.00;;;;;;5111596;28;20441;-70
2021/08/02 09:52:08;;;;;;;57.53;2.30;;;22.30;1.00;;;;;;5110105;28;20501;-70
2021/08/02 09:54:36;;;;;;;58.60;2.70;;;22.40;1.00;;;;;;5112115;28;20441;-70
2021/08/02 09:57:03;;;;;;;58.17;2.50;;;22.50;1.00;;;;;;5111860;28;20453;-71
2021/08/02 09:59:30;;;;;;;57.83;2.10;;;22.50;1.00;;;;;;5111114;28;20444;-71
2021/08/02 10:01:57;;;;;;;57.67;2.23;;;22.40;1.00;;;;;;5111218;28;21047;-70
2021/08/02 10:04:25;;;;;;;58.60;2.60;;;22.40;1.00;;;;;;5112149;28;20568;-70
2021/08/02 10:06:54;;;;;;;57.60;2.50;;;22.60;1.00;;;;;;5111950;28;20448;-71
2021/08/02 10:09:22;;;;;;;57.20;2.10;;;22.60;1.00;;;;;;5111393;28;20481;-70
2021/08/02 10:11:49;;;;;;;57.67;2.20;;;22.50;1.00;;;;;;5111892;28;20466;-70
2021/08/02 10:14:16;;;;;;;58.10;2.20;;;22.40;1.00;;;;;;5112086;28;20929;-70
2021/08/02 10:16:46;;;;;;;57.50;2.30;;;22.30;1.00;;;;;;5111796;28;20450;-70
2021/08/02 10:19:14;;;;;;;57.87;2.27;;;22.10;1.00;;;;;;5111738;28;20441;-70
2021/08/02 10:21:43;;;;;;;58.10;2.23;;;21.90;1.00;;;;;;5111263;28;20473;-70
2021/08/02 10:24:13;;;;;;;57.97;2.30;;;21.60;1.00;;;;;;5110200;28;20572;-70
2021/08/02 10:26:41;;;;;;;57.50;2.20;;;21.40;1.00;;;;;;5112192;28;20445;-69
2021/08/02 10:29:09;;;;;;;57.90;2.20;;;21.10;1.00;;;;;;5111351;28;20532;-70
2021/08/02 10:31:43;;;;;;;57.53;2.17;;;20.70;1.00;;;;;;5111542;28;20469;-70
2021/08/02 10:34:18;;;;;;;58.20;2.30;;;20.10;1.00;;;;;;5111685;28;20453;-70
2021/08/02 10:36:58;;;;;;;57.83;2.40;;;19.60;1.00;;;;;;5111486;28;20472;-70
2021/08/02 10:39:28;;;;;;;57.77;2.27;;;19.10;1.00;;;;;;5112618;28;20824;-70
2021/08/02 10:42:05;;;;;;;57.53;2.40;;;18.70;1.00;;;;;;5115247;28;20553;-70
2021/08/02 10:44:31;;;;;;;58.03;2.40;;;18.30;1.00;;;;;;5115511;28;20484;-70
2021/08/02 10:47:01;;;;;;;57.97;2.30;;;17.90;1.00;;;;;;5117385;28;20476;-70
2021/08/02 10:49:28;;;;;;;58.70;2.80;;;17.60;1.00;;;;;;5115499;28;20463;-70
2021/08/02 10:51:56;;;;;;;57.97;2.67;;;17.30;1.00;;;;;;5116921;28;20564;-69
2021/08/02 10:54:23;;;;;;;58.17;2.40;;;17.20;1.00;;;;;;5116081;28;20860;-69
2021/08/02 10:56:52;;;;;;;58.27;2.60;;;17.10;1.00;;;;;;5116804;28;20829;-69
2021/08/02 10:59:20;;;;;;;58.17;2.50;;;17.10;1.00;;;;;;5115317;28;20820;-69
2021/08/02 11:01:49;;;;;;;58.07;2.40;;;17.00;1.00;;;;;;5114955;28;20556;-69
2021/08/02 11:04:18;;;;;;;58.30;2.60;;;17.00;1.00;;;;;;5115175;28;20486;-69
2021/08/02 11:06:47;;;;;;;57.57;2.50;;;17.00;1.00;;;;;;5116161;28;20456;-69
2021/08/02 11:09:13;;;;;;;58.13;2.53;;;16.90;1.00;;;;;;5116197;28;20449;-69
2021/08/02 11:11:40;;;;;;;58.33;2.50;;;16.80;1.00;;;;;;5116336;28;20508;-69
2021/08/02 11:14:11;;;;;;;58.10;2.37;;;16.80;1.00;;;;;;5115625;28;20812;-69
2021/08/02 11:16:40;;;;;;;58.40;2.70;;;16.90;1.00;;;;;;5115922;28;20967;-69
2021/08/02 11:19:18;;;;;;;58.17;2.70;;;16.90;1.00;;;;;;5114907;28;20969;-68
2021/08/02 11:21:46;;;;;;;58.30;2.77;;;17.00;1.00;;;;;;5114690;28;20528;-68
2021/08/02 11:24:13;;;;;;;58.37;2.40;;;17.00;1.00;;;;;;5115437;28;20478;-69
2021/08/02 11:26:53;;;;;;;58.07;2.40;;;17.10;1.00;;;;;;5114009;28;20896;-69
2021/08/02 11:29:23;;;;;;;58.30;2.60;;;17.10;1.00;;;;;;5116241;28;20445;-69
2021/08/02 11:31:58;;;;;;;58.20;2.50;;;17.10;1.00;;;;;;5116335;28;21063;-69
2021/08/02 11:34:26;;;;;;;58.37;2.60;;;17.10;6.50;;;;;;5116329;28;20440;-69
2021/08/02 11:37:00;;;;;;;58.27;2.40;;;17.00;6.60;;;;;;5116008;28;20536;-69
2021/08/02 11:39:27;;;;;;;57.97;2.70;;;16.90;9.30;;;;;;5115596;28;20832;-70
2021/08/02 11:42:06;;;;;;;58.30;2.80;;;16.80;9.40;;;;;;5115629;28;20472;-69
2021/08/02 11:44:37;;;;;;;57.87;2.70;;;16.70;6.40;;;;;;5115645;28;20560;-69
2021/08/02 11:47:07;;;;;;;58.17;2.40;;;16.70;1.00;;;;;;5115627;28;20441;-69
2021/08/02 11:49:38;;;;;;;58.37;2.80;;;16.70;1.00;;;;;;5115171;28;20878;-69
2021/08/02 11:52:06;;;;;;;58.07;2.40;;;16.90;1.00;;;;;;5115649;28;20449;-69
2021/08/02 11:54:33;;;;;;;58.40;2.77;;;17.20;9.40;;;;;;5115474;28;20981;-69
2021/08/02 11:57:00;;;;;;;58.97;3.00;;;17.80;42.60;;;;;;5113101;28;20961;-69
2021/08/02 11:59:29;;;;;;;58.53;2.83;;;18.70;64.30;;;;;;5113927;28;20533;-69
2021/08/02 12:01:59;;;;;;;57.87;2.77;;;19.40;45.30;;;;;;5113876;28;20553;-69
2021/08/02 12:04:27;;;;;;;58.00;2.77;;;19.90;1.00;;;;;;5113615;28;20495;-69
2021/08/02 12:06:55;;;;;;;57.83;2.33;;;20.00;1.00;;;;;;5114030;28;20450;-69
2021/08/02 12:09:30;;;;;;;57.87;2.40;;;19.90;1.00;;;;;;5113626;28;20542;-69
2021/08/02 12:11:58;;;;;;;57.83;2.30;;;19.60;1.00;;;;;;5114127;28;21039;-69
2021/08/02 12:14:25;;;;;;;58.10;2.40;;;19.40;1.00;;;;;;5113712;28;20440;-69
2021/08/02 12:17:05;;;;;;;58.07;2.23;;;19.20;1.00;;;;;;5114149;28;20927;-69
2021/08/02 12:19:43;;;;;;;57.97;2.80;;;19.10;1.00;;;;;;5113894;28;20499;-69
2021/08/02 12:22:10;;;;;;;57.77;2.40;;;19.00;1.00;;;;;;5113524;28;20623;-69
2021/08/02 12:24:48;;;;;;;57.80;2.20;;;18.90;1.00;;;;;;5113292;28;20483;-69
2021/08/02 12:27:17;;;;;;;57.87;2.30;;;19.00;1.00;;;;;;5113363;28;20444;-69
2021/08/02 12:29:44;;;;;;;57.90;2.50;;;19.40;1.00;;;;;;5097413;28;20864;-69
2021/08/02 12:32:12;;;;;;;58.07;2.40;;;19.60;1.00;;;;;;5093357;28;20448;-69
2021/08/02 12:34:39;;;;;;;58.10;2.43;;;19.70;1.00;;;;;;5093066;28;20439;-69
2021/08/02 12:37:06;;;;;;;57.90;2.30;;;19.70;1.00;;;;;;5093630;28;20491;-69
2021/08/02 12:39:33;;;;;;;58.07;2.33;;;19.70;1.00;;;;;;5092561;28;20449;-69
2021/08/02 12:42:00;;;;;;;58.00;2.40;;;19.60;1.00;;;;;;5092302;28;20476;-69
2021/08/02 12:44:27;;;;;;;57.77;2.40;;;19.40;1.00;;;;;;5092490;28;20600;-69
2021/08/02 12:46:54;;;;;;;57.97;2.40;;;19.10;1.00;;;;;;5092840;28;20452;-70
2021/08/02 12:49:22;;;;;;;57.77;2.40;;;18.60;1.00;;;;;;5093123;28;20547;-69